Time;durP1;ratioP1;P1;durP2;ratioP2;P2;SDS_P1;SDS_P2;PMS_P1;PMS_P2;Temp;Humidity;BMP_temperature;BMP_pressure;BME280_temperature;BME280_humidity;BME280_pressure;Samples;Min_cycle;Max_cycle;Signal;HPM_P1;HPM_P2
2021/09/23 00:00:51;;;;;;;36.65;21.80;;;;;;;11.21;72.07;101112.84;8718012;33;20196;-73
2021/09/23 00:05:56;;;;;;;35.95;20.48;;;;;;;11.12;72.30;101098.22;8718070;33;21861;-73
2021/09/23 00:11:00;;;;;;;42.78;22.50;;;;;;;11.00;72.72;101085.66;8718672;33;20704;-73
2021/09/23 00:16:04;;;;;;;36.05;22.38;;;;;;;10.95;72.65;101080.59;8717988;33;20136;-74
2021/09/23 00:21:07;;;;;;;36.08;22.73;;;;;;;10.87;72.88;101084.81;8718205;33;20438;-73
2021/09/23 00:26:12;;;;;;;37.58;24.17;;;;;;;10.87;72.72;101088.34;8718054;33;20191;-73
2021/09/23 00:31:15;;;;;;;46.10;25.45;;;;;;;10.85;72.91;101066.09;8718335;33;20286;-73
2021/09/23 00:36:18;;;;;;;42.25;24.75;;;;;;;10.78;72.87;101059.44;8716246;33;20432;-73
2021/09/23 00:41:23;;;;;;;42.22;24.83;;;;;;;10.76;72.96;101058.69;8718063;33;20197;-73
2021/09/23 00:46:26;;;;;;;44.80;26.05;;;;;;;10.68;73.29;101048.47;8716962;33;20235;-74
2021/09/23 00:51:29;;;;;;;46.42;24.70;;;;;;;10.68;73.31;101053.84;8716076;33;20444;-73
2021/09/23 00:56:34;;;;;;;39.58;25.73;;;;;;;10.50;73.66;101055.13;8715972;33;20270;-73
2021/09/23 01:01:44;;;;;;;43.75;26.23;;;;;;;10.49;74.07;101040.84;8715851;33;21611;-73
2021/09/23 01:06:51;;;;;;;50.03;27.88;;;;;;;10.61;73.80;101044.50;8715601;33;20191;-73
2021/09/23 01:11:55;;;;;;;45.17;26.90;;;;;;;10.67;73.54;101036.03;8717014;33;20850;-73
2021/09/23 01:16:58;;;;;;;43.58;27.33;;;;;;;10.79;73.01;101034.28;8715075;33;20278;-74
2021/09/23 01:22:10;;;;;;;47.83;26.83;;;;;;;10.83;72.55;101038.44;8715537;33;20187;-74
2021/09/23 01:27:36;;;;;;;49.97;27.58;;;;;;;10.74;72.90;101028.38;8715847;33;20195;-74
2021/09/23 01:32:40;;;;;;;44.70;27.50;;;;;;;10.80;72.76;101009.09;8714939;33;20322;-74
2021/09/23 01:37:45;;;;;;;45.33;26.30;;;;;;;10.69;73.11;101004.50;8715409;33;20191;-74
2021/09/23 01:42:48;;;;;;;43.05;27.40;;;;;;;10.64;72.81;101001.31;8715995;33;20480;-73
2021/09/23 01:47:52;;;;;;;45.28;26.80;;;;;;;10.57;73.04;100978.53;8714499;33;20230;-73
2021/09/23 01:53:00;;;;;;;47.15;27.65;;;;;;;10.43;73.77;100971.47;8714120;33;20214;-74
2021/09/23 01:58:04;;;;;;;44.67;27.38;;;;;;;10.40;74.04;100966.31;8714406;33;20178;-74
2021/09/23 02:03:12;;;;;;;55.22;30.02;;;;;;;10.38;74.24;100962.88;8714164;33;20456;-74
2021/09/23 02:08:40;;;;;;;49.42;29.45;;;;;;;10.34;74.39;100951.50;8707955;33;20949;-74
2021/09/23 02:13:44;;;;;;;49.60;28.73;;;;;;;10.32;74.35;100928.41;8714234;33;20218;-74
2021/09/23 02:18:48;;;;;;;51.78;28.83;;;;;;;10.36;74.25;100924.50;8714319;33;20212;-74
2021/09/23 02:23:53;;;;;;;51.38;28.55;;;;;;;10.36;73.88;100922.69;8713921;33;20227;-74
2021/09/23 02:28:56;;;;;;;49.35;28.98;;;;;;;10.32;73.94;100917.66;8714548;33;20449;-74
2021/09/23 02:33:59;;;;;;;46.33;27.73;;;;;;;10.33;73.90;100911.31;8713569;33;20259;-74
2021/09/23 02:39:05;;;;;;;47.05;27.33;;;;;;;10.36;74.09;100916.47;8713926;33;20719;-74
2021/09/23 02:44:08;;;;;;;51.33;29.70;;;;;;;10.14;73.65;100901.03;8713040;33;20648;-74
2021/09/23 02:49:11;;;;;;;53.50;30.88;;;;;;;10.21;74.35;100902.31;8713774;33;20184;-74
2021/09/23 02:54:15;;;;;;;59.50;31.88;;;;;;;10.30;74.00;100888.22;8713097;33;20282;-74
2021/09/23 02:59:18;;;;;;;53.65;29.75;;;;;;;10.31;74.15;100875.66;8713511;33;20149;-73
2021/09/23 03:04:22;;;;;;;56.58;31.95;;;;;;;10.29;74.26;100865.03;8713477;33;20222;-73
2021/09/23 03:09:26;;;;;;;58.40;32.47;;;;;;;10.42;73.48;100853.38;8716985;33;20269;-73
2021/09/23 03:14:29;;;;;;;57.35;31.90;;;;;;;10.55;72.95;100855.06;8717712;33;20168;-73
2021/09/23 03:19:34;;;;;;;56.95;31.05;;;;;;;10.56;72.92;100837.13;8718746;33;20179;-74
2021/09/23 03:24:39;;;;;;;55.00;30.38;;;;;;;10.59;72.83;100842.28;8718005;33;21561;-74
2021/09/23 03:29:42;;;;;;;51.00;29.75;;;;;;;10.53;73.08;100824.78;8718711;33;20187;-74
2021/09/23 03:34:45;;;;;;;54.00;29.67;;;;;;;10.28;73.50;100833.75;8719157;33;21100;-74
2021/09/23 03:39:50;;;;;;;59.00;32.15;;;;;;;10.49;73.08;100843.91;8717554;33;20732;-74
2021/09/23 03:44:53;;;;;;;53.72;30.42;;;;;;;10.54;72.77;100845.28;8718583;33;20183;-74
2021/09/23 03:49:56;;;;;;;55.80;31.85;;;;;;;10.44;73.13;100843.41;8716758;33;20438;-74
2021/09/23 03:55:00;;;;;;;52.03;29.70;;;;;;;10.24;73.63;100845.72;8716528;33;20548;-74
2021/09/23 04:00:05;;;;;;;53.53;30.27;;;;;;;10.42;73.44;100842.63;8717248;33;20692;-74
2021/09/23 04:05:18;;;;;;;56.50;29.48;;;;;;;10.50;72.77;100835.72;8718809;33;20176;-74
2021/09/23 04:10:23;;;;;;;55.63;29.92;;;;;;;10.34;73.45;100837.84;8717170;33;20183;-74
2021/09/23 04:15:26;;;;;;;45.10;26.05;;;;;;;10.13;74.00;100813.41;8716383;33;20195;-74
2021/09/23 04:20:35;;;;;;;63.10;32.38;;;;;;;10.26;73.83;100805.34;8716147;33;20217;-74
2021/09/23 04:25:40;;;;;;;53.70;29.08;;;;;;;10.38;73.09;100807.09;8719711;33;20129;-74
2021/09/23 04:30:43;;;;;;;51.45;29.30;;;;;;;10.17;73.92;100801.47;8716352;33;20176;-72
2021/09/23 04:35:49;;;;;;;50.28;27.33;;;;;;;10.06;74.35;100801.38;8716490;33;20176;-73
2021/09/23 04:40:55;;;;;;;47.88;28.70;;;;;;;10.23;73.63;100793.00;8716690;33;20279;-73
2021/09/23 04:45:58;;;;;;;53.90;28.05;;;;;;;10.22;73.73;100804.69;8716542;33;20437;-73
2021/09/23 04:51:02;;;;;;;47.80;26.98;;;;;;;10.20;73.50;100819.19;8716606;33;20132;-72
2021/09/23 04:56:06;;;;;;;56.17;29.60;;;;;;;10.13;73.69;100803.53;8716223;33;20685;-73
2021/09/23 05:01:09;;;;;;;53.22;30.80;;;;;;;10.08;73.98;100802.16;8716183;33;20214;-74
2021/09/23 05:06:13;;;;;;;48.97;29.42;;;;;;;9.83;75.03;100798.50;8715706;33;20646;-74
2021/09/23 05:11:18;;;;;;;52.70;28.50;;;;;;;9.79;75.20;100793.47;8716475;33;20676;-73
2021/09/23 05:16:24;;;;;;;48.80;27.70;;;;;;;9.75;75.22;100803.56;8717436;33;20136;-74
2021/09/23 05:21:28;;;;;;;48.88;28.90;;;;;;;9.79;75.14;100797.03;8717539;33;20144;-74
2021/09/23 05:26:32;;;;;;;53.78;29.52;;;;;;;9.73;75.68;100781.34;8717016;33;20581;-74
2021/09/23 05:31:37;;;;;;;47.17;28.55;;;;;;;9.76;75.41;100773.06;8717527;33;20172;-74
2021/09/23 05:36:40;;;;;;;45.65;26.00;;;;;;;9.72;75.75;100768.91;8717325;33;20631;-73
2021/09/23 05:41:45;;;;;;;50.40;27.85;;;;;;;9.90;74.97;100773.00;8715106;33;20187;-74
2021/09/23 05:46:48;;;;;;;52.33;27.73;;;;;;;9.90;75.02;100753.31;8716298;33;20150;-74
2021/09/23 05:51:53;;;;;;;50.63;27.05;;;;;;;9.97;75.08;100764.50;8716535;33;20128;-75
2021/09/23 05:56:58;;;;;;;51.35;27.13;;;;;;;10.05;74.70;100756.75;8715667;33;20140;-74
2021/09/23 06:02:01;;;;;;;45.83;24.83;;;;;;;10.01;74.80;100736.44;8716552;33;21950;-74
2021/09/23 06:07:04;;;;;;;44.42;25.27;;;;;;;10.03;74.82;100734.53;8716484;33;20210;-75
2021/09/23 06:12:10;;;;;;;44.58;24.65;;;;;;;10.23;74.32;100735.72;8716237;33;20180;-75
2021/09/23 06:17:13;;;;;;;37.65;19.83;;;;;;;10.34;74.03;100735.81;8715273;33;20775;-75
2021/09/23 06:22:16;;;;;;;34.65;19.13;;;;;;;10.47;73.44;100751.84;8708520;33;20287;-73
2021/09/23 06:27:21;;;;;;;43.33;24.42;;;;;;;10.71;73.15;100751.84;8664073;33;20327;-73
2021/09/23 06:32:25;;;;;;;36.90;22.52;;;;;;;11.02;72.07;100743.13;8672101;33;20188;-73
2021/09/23 06:37:29;;;;;;;38.10;22.05;;;;;;;11.04;71.74;100737.63;8683534;33;20217;-73
2021/09/23 06:42:33;;;;;;;34.92;19.17;;;;;;;11.12;71.36;100735.25;8684580;33;20246;-72
2021/09/23 06:47:37;;;;;;;38.88;22.42;;;;;;;11.13;71.60;100722.66;8689048;33;20180;-72
2021/09/23 06:52:40;;;;;;;43.33;21.05;;;;;;;11.10;71.68;100725.56;8686135;33;20227;-72
2021/09/23 06:57:44;;;;;;;34.78;19.80;;;;;;;11.40;70.68;100722.31;8661127;33;20185;-72
2021/09/23 07:03:06;;;;;;;35.33;18.50;;;;;;;11.66;69.51;100709.50;8670852;33;20247;-72
2021/09/23 07:08:22;;;;;;;31.35;19.70;;;;;;;11.84;69.38;100693.66;8689161;33;20236;-73
2021/09/23 07:13:27;;;;;;;30.50;18.08;;;;;;;12.02;68.75;100694.00;8670801;33;20272;-72
2021/09/23 07:18:30;;;;;;;30.98;17.35;;;;;;;12.16;68.07;100691.03;8662312;33;20603;-72
2021/09/23 07:23:33;;;;;;;31.75;18.05;;;;;;;12.28;67.49;100690.03;8661028;33;20432;-72
2021/09/23 07:28:38;;;;;;;34.10;18.02;;;;;;;12.47;67.34;100675.88;8661078;33;20161;-72
2021/09/23 07:33:41;;;;;;;30.88;16.20;;;;;;;12.65;66.85;100660.00;8660419;33;20219;-73
2021/09/23 07:38:44;;;;;;;27.48;17.00;;;;;;;12.79;66.02;100661.50;8665539;33;20184;-73
2021/09/23 07:43:48;;;;;;;28.08;16.20;;;;;;;13.14;65.00;100657.59;8660315;33;20220;-74
2021/09/23 07:48:53;;;;;;;27.70;16.25;;;;;;;13.44;65.34;100649.53;8677791;33;20191;-73
2021/09/23 07:53:57;;;;;;;21.77;14.05;;;;;;;13.80;63.81;100646.34;8718263;33;20180;-71
2021/09/23 07:59:01;;;;;;;24.52;14.63;;;;;;;14.44;62.14;100645.84;8720901;33;20332;-73
2021/09/23 08:04:05;;;;;;;23.17;13.05;;;;;;;14.97;60.71;100639.06;8712765;33;21597;-73
2021/09/23 08:09:10;;;;;;;22.35;12.45;;;;;;;14.82;60.00;100634.13;8664324;33;20597;-73
2021/09/23 08:14:15;;;;;;;21.75;12.20;;;;;;;15.21;59.80;100623.16;8662188;33;20149;-73
2021/09/23 08:19:20;;;;;;;23.38;12.32;;;;;;;14.71;60.70;100596.44;8659793;33;20584;-73
2021/09/23 08:24:46;;;;;;;20.90;12.55;;;;;;;15.06;60.43;100586.78;8660356;33;20173;-72
2021/09/23 08:29:50;;;;;;;19.52;11.48;;;;;;;14.99;60.47;100564.03;8711886;33;20196;-73
2021/09/23 08:34:53;;;;;;;18.95;11.27;;;;;;;14.62;60.81;100573.00;8662487;33;20189;-72
2021/09/23 08:39:57;;;;;;;19.17;9.15;;;;;;;14.56;60.31;100569.03;8659247;33;20188;-73
2021/09/23 08:45:01;;;;;;;19.42;10.63;;;;;;;15.20;59.36;100553.81;8658991;33;20262;-73
2021/09/23 08:50:11;;;;;;;16.48;9.55;;;;;;;15.50;57.38;100559.97;8659951;33;20689;-72
2021/09/23 08:55:22;;;;;;;16.65;9.63;;;;;;;15.70;57.71;100553.41;8673624;33;20156;-71
2021/09/23 09:00:28;;;;;;;11.45;7.22;;;;;;;15.56;57.38;100542.25;8679539;33;20199;-72
2021/09/23 09:05:33;;;;;;;16.92;9.90;;;;;;;16.22;56.60;100541.00;8702519;33;20676;-72
2021/09/23 09:11:02;;;;;;;16.00;8.80;;;;;;;16.05;56.21;100551.69;8686401;33;20168;-72
2021/09/23 09:16:10;;;;;;;14.48;9.23;;;;;;;16.12;57.21;100554.63;8658985;33;20551;-72
2021/09/23 09:21:16;;;;;;;18.95;10.05;;;;;;;16.60;55.61;100520.81;8655219;33;20252;-73
2021/09/23 09:26:31;;;;;;;15.20;9.18;;;;;;;16.67;55.27;100539.97;8655862;33;20214;-73
2021/09/23 09:31:45;;;;;;;10.85;6.70;;;;;;;16.61;54.80;100529.78;8657269;33;20253;-72
2021/09/23 09:36:50;;;;;;;13.60;8.40;;;;;;;16.86;55.10;100530.75;8659541;33;20276;-72
2021/09/23 09:41:54;;;;;;;14.27;8.07;;;;;;;16.09;56.17;100525.13;8658030;33;20180;-72
2021/09/23 09:46:59;;;;;;;15.63;9.13;;;;;;;17.50;53.25;100501.31;8659153;33;20449;-72
2021/09/23 09:52:06;;;;;;;13.15;7.85;;;;;;;17.70;51.65;100497.28;8659384;33;20682;-73
2021/09/23 09:57:13;;;;;;;10.98;6.97;;;;;;;17.00;53.50;100503.00;8695314;33;20192;-73
2021/09/23 10:02:20;;;;;;;12.05;6.60;;;;;;;16.70;54.17;100502.56;8685482;33;20254;-74
2021/09/23 10:07:27;;;;;;;12.75;8.70;;;;;;;17.21;54.14;100472.75;8693463;33;20901;-72
2021/09/23 10:12:31;;;;;;;12.80;7.93;;;;;;;17.80;51.84;100467.22;8683773;33;20458;-73
2021/09/23 10:17:37;;;;;;;14.13;7.45;;;;;;;17.69;51.98;100485.59;8684542;33;20859;-73
2021/09/23 10:22:41;;;;;;;14.13;7.57;;;;;;;17.70;52.50;100478.28;8678636;33;20188;-72
2021/09/23 10:28:01;;;;;;;14.43;7.95;;;;;;;18.69;50.73;100462.72;8674065;33;20133;-73
2021/09/23 10:33:11;;;;;;;12.65;8.70;;;;;;;17.99;51.97;100444.31;8664454;33;20180;-74
2021/09/23 10:38:15;;;;;;;12.10;7.82;;;;;;;17.26;53.61;100456.81;8656673;33;20453;-72
2021/09/23 10:43:20;;;;;;;16.23;9.00;;;;;;;17.49;53.13;100446.16;8658144;33;20207;-73
2021/09/23 10:48:35;;;;;;;11.10;7.65;;;;;;;17.74;53.27;100444.31;8658007;33;20184;-73
2021/09/23 10:53:40;;;;;;;12.32;7.80;;;;;;;17.86;53.35;100437.53;8656142;33;20233;-72
2021/09/23 10:58:50;;;;;;;10.40;6.38;;;;;;;18.92;50.55;100449.19;8679291;33;20176;-72
2021/09/23 11:03:58;;;;;;;14.13;8.02;;;;;;;18.95;51.90;100429.78;8679149;33;21052;-73
2021/09/23 11:09:20;;;;;;;11.70;7.57;;;;;;;18.62;51.85;100424.47;8656066;33;20163;-73
2021/09/23 11:14:44;;;;;;;14.98;9.13;;;;;;;19.37;50.82;100413.03;8656252;33;20181;-73
2021/09/23 11:19:57;;;;;;;14.15;8.55;;;;;;;19.19;51.68;100409.75;8655605;33;20263;-73
2021/09/23 11:25:02;;;;;;;13.00;8.95;;;;;;;18.50;53.16;100428.59;8655710;33;20184;-72
2021/09/23 11:30:09;;;;;;;11.20;7.80;;;;;;;19.27;50.86;100392.50;8682260;33;20136;-73
2021/09/23 11:35:17;;;;;;;11.13;7.88;;;;;;;20.04;49.65;100404.13;8660021;33;20184;-72
2021/09/23 11:40:25;;;;;;;14.68;8.68;;;;;;;18.50;52.81;100401.41;8660033;33;20172;-73
2021/09/23 11:45:31;;;;;;;12.55;9.95;;;;;;;18.20;53.48;100403.03;8659731;33;20743;-73
2021/09/23 11:50:39;;;;;;;12.38;7.88;;;;;;;18.33;53.69;100397.91;8659929;33;20161;-72
2021/09/23 11:55:56;;;;;;;13.27;8.65;;;;;;;19.40;51.87;100392.75;8659977;33;20234;-72
2021/09/23 12:00:59;;;;;;;15.85;10.50;;;;;;;19.63;51.25;100377.25;8683381;33;20191;-72
2021/09/23 12:06:09;;;;;;;14.80;9.48;;;;;;;19.86;50.54;100384.56;8683593;33;20211;-72
2021/09/23 12:11:16;;;;;;;14.60;8.80;;;;;;;18.46;52.95;100389.19;8684479;33;20149;-73
2021/09/23 12:16:30;;;;;;;11.98;8.48;;;;;;;18.33;53.29;100376.97;8682696;33;20212;-74
2021/09/23 12:21:53;;;;;;;12.23;9.25;;;;;;;19.79;50.86;100369.97;8659523;33;20188;-72
2021/09/23 12:26:59;;;;;;;12.50;8.95;;;;;;;18.59;52.57;100386.72;8660484;33;20195;-74
2021/09/23 12:32:08;;;;;;;12.88;9.57;;;;;;;18.42;53.46;100361.47;8659838;33;20326;-73
2021/09/23 12:37:13;;;;;;;15.95;8.90;;;;;;;19.32;51.24;100343.81;8658777;33;20188;-73
2021/09/23 12:42:46;;;;;;;12.50;8.15;;;;;;;19.08;51.68;100342.09;8700204;33;20233;-73
2021/09/23 12:47:56;;;;;;;15.15;10.63;;;;;;;18.54;53.58;100361.94;8672082;33;20199;-73
2021/09/23 12:53:06;;;;;;;12.13;8.95;;;;;;;17.82;55.11;100357.34;8687344;33;21060;-73
2021/09/23 12:58:21;;;;;;;14.05;8.85;;;;;;;17.66;56.27;100346.53;8669590;33;20145;-73
2021/09/23 13:03:32;;;;;;;17.08;12.00;;;;;;;17.47;56.10;100324.16;8686176;33;20163;-73
2021/09/23 13:08:54;;;;;;;16.45;11.43;;;;;;;17.53;56.04;100338.91;8683257;33;20192;-73
2021/09/23 13:14:21;;;;;;;16.90;11.05;;;;;;;17.45;57.28;100333.50;8684471;33;20942;-73
2021/09/23 13:19:26;;;;;;;14.50;10.07;;;;;;;17.15;57.73;100338.56;8688785;33;20737;-72
2021/09/23 13:24:41;;;;;;;16.65;12.35;;;;;;;16.52;59.20;100331.78;8711519;33;20762;-73
2021/09/23 13:29:46;;;;;;;19.48;13.55;;;;;;;16.74;59.21;100329.47;8715531;33;20183;-71
2021/09/23 13:34:49;;;;;;;18.90;12.57;;;;;;;17.02;58.27;100349.03;8715509;33;20175;-72
2021/09/23 13:39:58;;;;;;;13.50;10.40;;;;;;;16.96;58.77;100325.28;8715679;33;20834;-72
2021/09/23 13:45:08;;;;;;;17.02;11.27;;;;;;;17.11;58.77;100315.44;8715376;33;20210;-71
2021/09/23 13:50:13;;;;;;;16.40;11.27;;;;;;;17.20;58.41;100324.50;8714205;33;20251;-73
2021/09/23 13:55:18;;;;;;;19.58;13.23;;;;;;;17.31;58.48;100320.59;8715117;33;21006;-72
2021/09/23 14:00:25;;;;;;;17.65;11.88;;;;;;;17.30;58.66;100311.59;8715038;33;20443;-72
2021/09/23 14:05:29;;;;;;;16.67;11.98;;;;;;;17.28;58.59;100289.22;8714840;33;20729;-72
2021/09/23 14:10:39;;;;;;;19.98;11.73;;;;;;;17.69;57.88;100286.44;8716411;33;20183;-73
2021/09/23 14:15:59;;;;;;;17.90;11.82;;;;;;;17.61;58.07;100291.91;8681444;33;20237;-72
2021/09/23 14:21:02;;;;;;;15.95;12.43;;;;;;;17.31;59.37;100278.00;8704727;33;20442;-72
2021/09/23 14:26:07;;;;;;;15.73;12.25;;;;;;;17.84;58.06;100271.09;8695230;33;20195;-72
2021/09/23 14:31:11;;;;;;;18.02;12.10;;;;;;;17.54;58.48;100289.00;8706502;33;20187;-72
2021/09/23 14:36:20;;;;;;;14.50;10.85;;;;;;;16.84;60.13;100277.78;8683920;33;20184;-72
2021/09/23 14:41:24;;;;;;;15.57;11.77;;;;;;;16.81;60.83;100285.25;8672658;33;20196;-74
2021/09/23 14:46:27;;;;;;;19.15;12.00;;;;;;;16.64;61.09;100290.81;8671771;33;20176;-72
2021/09/23 14:51:31;;;;;;;17.20;12.82;;;;;;;16.45;61.79;100290.06;8679491;33;20152;-72
2021/09/23 14:56:35;;;;;;;20.60;12.38;;;;;;;16.47;61.71;100289.91;8691161;33;20192;-73
2021/09/23 15:01:39;;;;;;;20.25;10.15;;;;;;;16.17;62.67;100277.75;8685763;33;21628;-73
2021/09/23 15:06:42;;;;;;;18.23;10.75;;;;;;;16.69;61.31;100275.72;8690271;33;20188;-71
2021/09/23 15:11:49;;;;;;;13.68;9.85;;;;;;;16.51;61.82;100283.13;8690070;33;20151;-72
2021/09/23 15:17:05;;;;;;;17.40;12.77;;;;;;;16.24;63.04;100259.84;8688344;33;21044;-71
2021/09/23 15:22:08;;;;;;;15.60;12.82;;;;;;;16.19;62.90;100271.16;8689241;33;20604;-72
2021/09/23 15:27:12;;;;;;;20.80;13.75;;;;;;;16.13;63.22;100272.66;8688614;33;20581;-71
2021/09/23 15:32:17;;;;;;;16.30;12.23;;;;;;;15.99;63.98;100272.41;8674534;33;20188;-71
2021/09/23 15:37:20;;;;;;;15.20;11.45;;;;;;;16.15;63.60;100264.34;8671767;33;20184;-73
2021/09/23 15:42:25;;;;;;;14.48;10.48;;;;;;;16.00;64.29;100255.19;8670698;33;20743;-74
2021/09/23 15:47:29;;;;;;;13.35;10.50;;;;;;;15.96;65.27;100279.00;8678683;33;20668;-72
2021/09/23 15:52:32;;;;;;;14.20;10.50;;;;;;;15.74;65.78;100275.00;8688178;33;20195;-71
2021/09/23 15:57:37;;;;;;;15.90;11.20;;;;;;;15.93;65.44;100273.91;8718107;33;21631;-72
2021/09/23 16:02:42;;;;;;;11.50;8.45;;;;;;;15.75;65.99;100265.88;8721237;33;20437;-72
2021/09/23 16:07:45;;;;;;;16.30;10.35;;;;;;;15.61;67.07;100239.41;8719097;33;20194;-72
2021/09/23 16:12:49;;;;;;;19.60;10.00;;;;;;;15.87;66.15;100258.31;8718884;33;20191;-72
2021/09/23 16:17:53;;;;;;;13.68;9.80;;;;;;;15.86;66.17;100243.94;8718193;33;20175;-72
2021/09/23 16:22:56;;;;;;;11.80;9.60;;;;;;;15.88;66.71;100225.69;8703374;33;21740;-73
2021/09/23 16:28:01;;;;;;;11.63;8.07;;;;;;;15.94;66.94;100221.47;8687855;33;20435;-73
2021/09/23 16:33:04;;;;;;;9.48;6.82;;;;;;;15.70;67.45;100217.63;8688071;33;20191;-73
2021/09/23 16:38:07;;;;;;;11.05;8.00;;;;;;;15.72;67.72;100222.88;8706039;33;20168;-73
2021/09/23 16:43:12;;;;;;;11.90;6.82;;;;;;;15.72;67.36;100231.00;8717671;33;20148;-73
2021/09/23 16:48:15;;;;;;;9.80;6.05;;;;;;;15.42;68.44;100224.25;8718545;33;20128;-72
2021/09/23 16:53:18;;;;;;;8.25;5.63;;;;;;;15.38;68.91;100223.69;8721291;33;20161;-72
2021/09/23 16:58:23;;;;;;;6.38;4.75;;;;;;;15.17;69.30;100245.69;8717725;33;20190;-72
2021/09/23 17:03:26;;;;;;;8.13;5.43;;;;;;;15.29;68.79;100234.59;8717632;33;21579;-73
2021/09/23 17:08:30;;;;;;;10.13;5.63;;;;;;;15.30;69.15;100231.72;8717674;33;20272;-73
2021/09/23 17:13:36;;;;;;;6.90;4.70;;;;;;;15.20;69.20;100225.59;8716585;33;20192;-73
2021/09/23 17:18:40;;;;;;;11.70;5.95;;;;;;;15.42;68.33;100225.09;8687429;33;20188;-72
2021/09/23 17:23:43;;;;;;;5.32;4.53;;;;;;;15.39;68.44;100238.09;8688006;33;20246;-73
2021/09/23 17:28:48;;;;;;;6.57;5.07;;;;;;;15.15;68.92;100225.22;8659913;33;20153;-72
2021/09/23 17:33:51;;;;;;;7.65;4.60;;;;;;;15.18;69.03;100239.25;8671985;33;20943;-74
2021/09/23 17:53:08;;;;;;;7.65;4.82;;;;;;;14.91;70.86;100240.22;8658229;33;20188;-74
2021/09/23 17:58:11;;;;;;;9.23;5.13;;;;;;;14.93;71.48;100256.31;8657648;33;20361;-74
2021/09/23 18:03:14;;;;;;;7.10;5.45;;;;;;;14.74;72.57;100266.28;8671570;33;20206;-74
2021/09/23 18:08:19;;;;;;;7.43;5.45;;;;;;;14.63;73.32;100282.72;8686233;33;20209;-73
2021/09/23 18:13:23;;;;;;;7.03;5.75;;;;;;;14.64;73.86;100270.91;8686382;33;20220;-75
2021/09/23 18:18:26;;;;;;;9.13;5.88;;;;;;;14.52;74.57;100281.09;8682382;33;20697;-74
2021/09/23 18:23:31;;;;;;;9.27;6.07;;;;;;;14.50;76.86;100283.09;8689609;33;20130;-74
2021/09/23 18:28:34;;;;;;;11.00;6.35;;;;;;;14.00;79.92;100296.16;8693664;33;20329;-75
2021/09/23 18:33:37;;;;;;;10.80;7.00;;;;;;;13.58;82.57;100310.06;8717400;33;20722;-76
2021/09/23 18:38:41;;;;;;;9.77;7.65;;;;;;;13.51;83.55;100317.03;8716865;33;20551;-74
2021/09/23 18:43:45;;;;;;;9.73;6.97;;;;;;;13.82;82.18;100318.53;8721158;33;20236;-74
2021/09/23 18:48:48;;;;;;;10.35;7.80;;;;;;;13.92;81.50;100307.69;8721523;33;20680;-73
2021/09/23 18:53:53;;;;;;;9.25;6.40;;;;;;;13.66;81.94;100315.59;8720095;33;20252;-74
2021/09/23 18:58:56;;;;;;;10.98;6.93;;;;;;;13.92;80.62;100315.78;8720727;33;20799;-73
2021/09/23 19:03:59;;;;;;;10.93;7.25;;;;;;;14.00;79.97;100306.94;8720367;33;20136;-74
2021/09/23 19:09:04;;;;;;;7.88;6.10;;;;;;;13.97;79.98;100308.09;8684936;33;20211;-74
2021/09/23 19:14:07;;;;;;;7.72;5.22;;;;;;;13.94;79.71;100311.09;8670850;33;20518;-74
2021/09/23 19:19:10;;;;;;;7.93;5.72;;;;;;;13.90;80.12;100307.84;8712773;33;21042;-74
2021/09/23 19:24:14;;;;;;;9.68;5.63;;;;;;;13.94;79.96;100313.78;8719713;33;20554;-74
2021/09/23 19:29:20;;;;;;;9.00;6.15;;;;;;;13.93;80.32;100331.84;8685056;33;20191;-74
2021/09/23 19:34:23;;;;;;;12.45;6.97;;;;;;;13.94;81.08;100336.25;8672503;33;20209;-74
2021/09/23 19:39:27;;;;;;;7.88;5.78;;;;;;;13.16;85.10;100340.03;8693661;33;20449;-75
2021/09/23 19:44:30;;;;;;;9.90;7.18;;;;;;;13.19;86.85;100356.81;8685263;33;20192;-74
2021/09/23 19:49:34;;;;;;;8.80;7.30;;;;;;;12.89;88.65;100363.16;8688863;33;20172;-74
2021/09/23 19:54:38;;;;;;;11.27;7.93;;;;;;;13.13;88.74;100378.91;8690598;33;20195;-73
2021/09/23 19:59:41;;;;;;;8.15;3.30;;;;;;;12.82;88.16;100383.56;8682674;33;20442;-74
2021/09/23 20:04:45;;;;;;;7.10;3.33;;;;;;;12.12;88.91;100398.75;8688200;33;20218;-74
2021/09/23 20:09:49;;;;;;;4.43;2.10;;;;;;;12.00;89.22;100411.44;8691239;33;20684;-73
2021/09/23 20:14:52;;;;;;;7.07;2.47;;;;;;;11.80;89.27;100404.25;8685202;33;20177;-73
2021/09/23 20:19:56;;;;;;;6.53;2.30;;;;;;;11.68;89.42;100387.28;8689637;33;20206;-74
2021/09/23 20:25:00;;;;;;;9.80;2.40;;;;;;;11.63;89.06;100394.94;8681876;33;20183;-74
2021/09/23 20:30:06;;;;;;;6.63;2.15;;;;;;;11.52;88.53;100390.47;8717502;33;20506;-74
2021/09/23 20:35:11;;;;;;;5.07;2.17;;;;;;;11.93;86.81;100368.06;8718482;33;20310;-74
2021/09/23 20:40:20;;;;;;;5.78;2.40;;;;;;;11.79;86.50;100387.22;8718790;33;20172;-75
2021/09/23 20:45:25;;;;;;;6.07;2.10;;;;;;;12.00;85.96;100379.13;8718340;33;20737;-73
2021/09/23 20:50:32;;;;;;;10.00;2.60;;;;;;;11.96;84.78;100375.03;8718314;33;21132;-73
2021/09/23 20:55:43;;;;;;;4.63;2.00;;;;;;;12.24;85.21;100395.00;8717357;33;20191;-73
2021/09/23 21:00:48;;;;;;;4.97;2.38;;;;;;;12.06;85.18;100396.59;8717407;33;20136;-73
2021/09/23 21:05:53;;;;;;;3.97;2.53;;;;;;;12.23;84.35;100395.13;8717562;33;20549;-73
2021/09/23 21:10:57;;;;;;;8.23;2.55;;;;;;;12.35;84.22;100391.38;8663729;33;20184;-72
2021/09/23 21:16:00;;;;;;;7.55;2.40;;;;;;;12.29;83.11;100417.03;8667032;33;21203;-72
2021/09/23 21:21:03;;;;;;;9.35;2.90;;;;;;;12.32;83.49;100416.75;8690230;33;21974;-73
2021/09/23 21:26:08;;;;;;;10.10;2.10;;;;;;;12.20;83.58;100425.00;8712223;33;20207;-72
2021/09/23 21:31:11;;;;;;;8.50;2.97;;;;;;;12.52;83.43;100423.06;8715317;33;20442;-72
2021/09/23 21:36:14;;;;;;;7.22;2.40;;;;;;;12.43;83.39;100421.19;8699316;33;20243;-73
2021/09/23 21:41:19;;;;;;;7.05;2.70;;;;;;;12.46;83.33;100422.75;8716831;33;20309;-73
2021/09/23 21:46:23;;;;;;;8.68;2.45;;;;;;;12.23;83.60;100414.84;8716543;33;20179;-73
2021/09/23 21:51:27;;;;;;;7.90;2.38;;;;;;;12.35;83.54;100432.63;8717266;33;20286;-73
2021/09/23 21:56:31;;;;;;;6.78;2.45;;;;;;;12.28;83.77;100427.88;8716231;33;20183;-73
2021/09/23 22:01:34;;;;;;;9.98;2.67;;;;;;;12.39;84.07;100422.44;8716870;33;20186;-73
2021/09/23 22:06:38;;;;;;;5.00;2.38;;;;;;;12.49;83.46;100433.28;8715646;33;20572;-73
2021/09/23 22:11:42;;;;;;;9.57;2.88;;;;;;;12.16;84.12;100440.59;8715607;33;20218;-73
2021/09/23 22:16:45;;;;;;;8.18;2.88;;;;;;;12.46;83.50;100436.22;8715487;33;20264;-73
2021/09/23 22:21:48;;;;;;;12.50;3.15;;;;;;;12.25;83.42;100441.63;8714462;33;20963;-72
2021/09/23 22:26:53;;;;;;;8.25;2.72;;;;;;;11.82;84.74;100443.50;8715009;33;20223;-73
2021/09/23 22:31:56;;;;;;;15.63;4.40;;;;;;;11.82;84.34;100442.63;8716150;33;21061;-72
2021/09/23 22:36:59;;;;;;;14.60;4.47;;;;;;;11.92;83.88;100439.03;8715347;33;20261;-73
2021/09/23 22:42:04;;;;;;;7.45;3.28;;;;;;;12.10;84.11;100443.81;8715405;33;20167;-72
2021/09/23 22:47:08;;;;;;;11.85;3.67;;;;;;;12.07;83.77;100442.25;8715049;33;20669;-72
2021/09/23 22:52:11;;;;;;;10.02;3.50;;;;;;;11.93;84.90;100431.81;8715110;33;20183;-72
2021/09/23 22:57:15;;;;;;;8.82;4.00;;;;;;;11.84;85.14;100422.66;8714381;33;20676;-72
2021/09/23 23:02:19;;;;;;;10.25;4.95;;;;;;;12.04;84.50;100423.66;8714841;33;20618;-72
2021/09/23 23:07:23;;;;;;;11.00;4.78;;;;;;;11.95;85.26;100429.81;8715223;33;20180;-72
2021/09/23 23:12:28;;;;;;;11.98;4.35;;;;;;;11.83;85.29;100431.75;8715127;33;21576;-72
2021/09/23 23:17:31;;;;;;;10.80;4.97;;;;;;;11.92;85.07;100440.84;8714634;33;20199;-72
2021/09/23 23:22:34;;;;;;;12.60;4.10;;;;;;;11.86;85.07;100444.09;8715045;33;20246;-72
2021/09/23 23:27:40;;;;;;;9.57;4.57;;;;;;;12.05;84.91;100438.81;8718785;33;20179;-73
2021/09/23 23:32:44;;;;;;;10.93;3.90;;;;;;;11.97;85.00;100443.16;8719479;33;20187;-72